createdAt,value
2018-11-04T00:00:56.563Z,67.42
2018-11-04T00:03:25.785Z,68.31
2018-11-04T00:05:54.766Z,68.45
2018-11-04T00:08:23.688Z,68.61
2018-11-04T00:10:52.614Z,69.16
2018-11-04T00:13:21.666Z,69.47
2018-11-04T00:15:50.520Z,69.40
2018-11-04T00:18:19.460Z,69.14
2018-11-04T00:20:48.379Z,69.47
2018-11-04T00:23:17.330Z,70.34
2018-11-04T00:25:46.278Z,69.05
2018-11-04T00:28:15.201Z,68.45
2018-11-04T00:30:44.136Z,68.67
2018-11-04T00:33:13.078Z,68.66
2018-11-04T00:35:42.018Z,68.39
2018-11-04T00:38:10.973Z,69.02
2018-11-04T00:40:39.901Z,68.32
2018-11-04T00:43:08.839Z,68.71
2018-11-04T00:45:37.824Z,69.40
2018-11-04T00:48:07.018Z,70.03
2018-11-04T00:50:35.966Z,68.45
2018-11-04T00:53:04.902Z,67.74
2018-11-04T00:55:33.829Z,68.60
2018-11-04T00:58:02.801Z,68.77
2018-11-04T01:00:31.746Z,67.77
2018-11-04T01:03:00.685Z,68.11
2018-11-04T01:05:29.607Z,68.43
2018-11-04T01:07:58.531Z,68.93
2018-11-04T01:10:27.465Z,70.03
2018-11-04T01:12:56.407Z,69.61
2018-11-04T01:15:25.317Z,69.20
2018-11-04T01:17:54.249Z,69.26
2018-11-04T01:20:23.169Z,69.81
2018-11-04T01:22:52.122Z,69.50
2018-11-04T01:25:21.017Z,69.76
2018-11-04T01:27:49.966Z,70.29
2018-11-04T01:30:18.890Z,69.81
2018-11-04T01:32:47.806Z,70.11
2018-11-04T01:35:16.725Z,69.43
2018-11-04T01:37:45.694Z,69.92
2018-11-04T01:40:14.620Z,69.16
2018-11-04T01:42:43.548Z,69.55
2018-11-04T01:45:12.518Z,69.22
2018-11-04T01:47:41.457Z,68.83
2018-11-04T01:50:13.411Z,68.31
2018-11-04T01:52:42.353Z,67.65
2018-11-04T01:55:12.093Z,68.20
2018-11-04T01:57:41.051Z,69.01
2018-11-04T02:00:15.221Z,68.98
2018-11-04T02:02:44.845Z,69.87
2018-11-04T02:05:14.213Z,69.74
2018-11-04T02:07:43.145Z,69.82
2018-11-04T02:10:13.233Z,69.53
2018-11-04T02:12:42.169Z,69.39
2018-11-04T02:15:12.422Z,69.42
2018-11-04T02:17:41.399Z,69.55
2018-11-04T02:20:11.834Z,69.64
2018-11-04T02:22:41.253Z,69.37
2018-11-04T02:25:11.550Z,69.52
2018-11-04T02:27:40.661Z,69.06
2018-11-04T02:30:12.033Z,69.87
2018-11-04T02:32:41.277Z,69.51
2018-11-04T02:35:10.194Z,68.91
2018-11-04T02:37:40.322Z,69.24
2018-11-04T02:40:09.317Z,69.05
2018-11-04T02:42:38.354Z,69.40
2018-11-04T02:45:07.585Z,67.93
2018-11-04T02:47:36.898Z,68.40
2018-11-04T02:50:06.637Z,69.07
2018-11-04T02:52:35.609Z,70.28
2018-11-04T02:55:04.827Z,69.86
2018-11-04T02:57:33.750Z,70.89
2018-11-04T03:00:02.672Z,71.16
2018-11-04T03:02:31.590Z,69.99
2018-11-04T03:05:00.509Z,69.53
2018-11-04T03:07:29.425Z,70.83
2018-11-04T03:09:58.347Z,70.82
2018-11-04T03:12:27.246Z,71.14
2018-11-04T03:14:56.202Z,71.90
2018-11-04T03:17:25.165Z,71.18
2018-11-04T03:19:54.081Z,71.24
2018-11-04T03:22:22.985Z,71.15
2018-11-04T03:24:51.927Z,71.15
2018-11-04T03:27:20.849Z,71.36
2018-11-04T03:29:49.788Z,70.57
2018-11-04T03:32:18.838Z,71.63
2018-11-04T03:34:47.783Z,71.16
2018-11-04T03:37:16.701Z,70.87
2018-11-04T03:39:45.657Z,70.53
2018-11-04T03:42:14.570Z,68.90
2018-11-04T03:44:43.499Z,69.91
2018-11-04T03:47:12.459Z,69.92
2018-11-04T03:49:41.368Z,69.16
2018-11-04T03:52:10.282Z,68.43
2018-11-04T03:54:39.213Z,69.48
2018-11-04T03:57:08.245Z,69.89
2018-11-04T03:59:37.162Z,69.63
2018-11-04T04:02:06.424Z,69.66
2018-11-04T04:04:35.433Z,69.98
2018-11-04T04:07:04.338Z,70.29
2018-11-04T04:09:33.261Z,69.39
2018-11-04T04:12:02.189Z,68.30
2018-11-04T04:14:31.122Z,69.34
2018-11-04T04:17:00.046Z,69.37
2018-11-04T04:19:28.961Z,69.40
2018-11-04T04:21:57.941Z,68.99
2018-11-04T04:24:26.871Z,69.32
2018-11-04T04:26:55.774Z,69.32
2018-11-04T04:29:24.710Z,68.72
2018-11-04T04:31:53.614Z,68.87
2018-11-04T04:34:22.564Z,69.06
2018-11-04T04:36:51.462Z,67.56
2018-11-04T04:39:20.397Z,68.49
2018-11-04T04:41:49.301Z,68.77
2018-11-04T04:44:18.245Z,68.14
2018-11-04T04:46:47.152Z,68.50
2018-11-04T04:49:16.086Z,68.60
2018-11-04T04:51:45.014Z,68.06
2018-11-04T04:54:13.943Z,68.20
2018-11-04T04:56:42.826Z,68.83
2018-11-04T04:59:11.753Z,68.19
2018-11-04T05:01:40.658Z,68.75
2018-11-04T05:04:09.593Z,68.26
2018-11-04T05:06:38.513Z,68.37
2018-11-04T05:09:07.700Z,68.35
2018-11-04T05:11:36.634Z,69.05
2018-11-04T05:14:05.581Z,70.13
2018-11-04T05:16:34.539Z,69.74
2018-11-04T05:19:03.453Z,68.84
2018-11-04T05:21:32.378Z,68.27
2018-11-04T05:24:01.297Z,68.25
2018-11-04T05:26:30.238Z,68.52
2018-11-04T05:28:59.147Z,68.16
2018-11-04T05:31:28.097Z,68.32
2018-11-04T05:33:56.986Z,68.84
2018-11-04T05:36:25.927Z,68.89
2018-11-04T05:38:54.873Z,69.28
2018-11-04T05:41:23.822Z,68.90
2018-11-04T05:43:52.741Z,68.81
2018-11-04T05:46:21.681Z,69.29
2018-11-04T05:48:50.609Z,70.10
2018-11-04T05:51:19.532Z,70.27
2018-11-04T05:53:48.465Z,69.53
2018-11-04T05:56:17.394Z,70.43
2018-11-04T05:58:46.317Z,69.93
2018-11-04T06:01:15.291Z,70.19
2018-11-04T06:03:44.213Z,70.84
2018-11-04T06:06:13.157Z,70.29
2018-11-04T06:08:42.074Z,71.13
2018-11-04T06:11:11.026Z,71.27
2018-11-04T06:13:39.941Z,70.81
2018-11-04T06:16:09.329Z,70.72
2018-11-04T06:18:38.538Z,71.42
2018-11-04T06:21:07.540Z,71.39
2018-11-04T06:23:36.481Z,71.31
2018-11-04T06:26:05.534Z,71.72
2018-11-04T06:28:34.493Z,71.57
2018-11-04T06:31:03.452Z,71.59
2018-11-04T06:33:32.351Z,71.66
2018-11-04T06:36:01.285Z,71.06
2018-11-04T06:38:30.208Z,71.40
2018-11-04T06:40:59.165Z,71.05
2018-11-04T06:43:28.065Z,70.46
2018-11-04T06:45:56.998Z,70.54
2018-11-04T06:48:25.912Z,71.07
2018-11-04T06:50:54.833Z,71.19
2018-11-04T06:53:23.771Z,71.49
2018-11-04T06:55:52.715Z,71.49
2018-11-04T06:58:21.629Z,71.23
2018-11-04T07:00:50.558Z,71.59
2018-11-04T07:03:19.461Z,71.99
2018-11-04T07:05:48.394Z,71.98
2018-11-04T07:08:17.306Z,71.69
2018-11-04T07:10:46.234Z,72.12
2018-11-04T07:13:15.162Z,72.05
2018-11-04T07:15:44.210Z,72.56
2018-11-04T07:18:13.141Z,72.39
2018-11-04T07:20:42.109Z,72.06
2018-11-04T07:23:11.030Z,72.25
2018-11-04T07:25:40.136Z,72.71
2018-11-04T07:28:08.961Z,72.73
2018-11-04T07:30:37.879Z,72.38
2018-11-04T07:33:06.834Z,72.97
2018-11-04T07:35:35.749Z,72.57
2018-11-04T07:38:04.810Z,72.81
2018-11-04T07:40:33.742Z,72.93
2018-11-04T07:43:02.690Z,72.52
2018-11-04T07:45:31.625Z,72.75
2018-11-04T07:48:00.566Z,72.50
2018-11-04T07:50:29.562Z,72.26
2018-11-04T07:52:58.510Z,72.86
2018-11-04T07:55:27.490Z,72.91
2018-11-04T07:57:56.491Z,72.81
2018-11-04T08:00:25.429Z,72.69
2018-11-04T08:02:54.435Z,72.18
2018-11-04T08:05:23.372Z,73.32
2018-11-04T08:07:52.318Z,73.75
2018-11-04T08:10:21.327Z,73.52
2018-11-04T08:12:50.264Z,73.42
2018-11-04T08:15:19.241Z,73.41
2018-11-04T08:17:48.199Z,73.72
2018-11-04T08:20:17.148Z,73.66
2018-11-04T08:22:46.134Z,73.58
2018-11-04T08:25:15.070Z,73.06
2018-11-04T08:27:44.188Z,73.74
2018-11-04T08:30:13.091Z,73.53
2018-11-04T08:32:42.040Z,74.11
2018-11-04T08:35:11.019Z,74.00
2018-11-04T08:37:39.977Z,73.67
2018-11-04T08:40:09.060Z,73.12
2018-11-04T08:42:37.838Z,73.76
2018-11-04T08:45:06.986Z,72.85
2018-11-04T08:47:36.014Z,73.27
2018-11-04T08:50:06.363Z,72.64
2018-11-04T08:52:35.472Z,73.11
2018-11-04T08:55:04.359Z,73.22
2018-11-04T08:57:33.313Z,73.44
2018-11-04T09:00:02.378Z,72.69
2018-11-04T09:02:31.247Z,72.91
2018-11-04T09:05:03.254Z,73.35
2018-11-04T09:07:32.199Z,73.07
2018-11-04T09:10:01.134Z,73.03
2018-11-04T09:12:30.109Z,72.46
2018-11-04T09:14:59.039Z,72.54
2018-11-04T09:17:27.999Z,71.88
2018-11-04T09:19:57.014Z,72.09
2018-11-04T09:22:26.081Z,72.34
2018-11-04T09:24:54.950Z,71.91
2018-11-04T09:27:24.694Z,72.05
2018-11-04T09:29:53.673Z,72.41
2018-11-04T09:32:23.399Z,72.29
2018-11-04T09:34:52.455Z,72.21
2018-11-04T09:37:21.767Z,71.68
2018-11-04T09:39:50.697Z,72.20
2018-11-04T09:42:19.714Z,72.47
2018-11-04T09:44:48.661Z,72.75
2018-11-04T09:47:17.625Z,72.51
2018-11-04T09:49:46.659Z,72.21
2018-11-04T09:52:15.553Z,72.37
2018-11-04T09:54:44.487Z,71.90
2018-11-04T09:57:13.401Z,72.40
2018-11-04T09:59:42.326Z,72.73
2018-11-04T10:02:11.238Z,72.48
2018-11-04T10:04:40.166Z,73.15
2018-11-04T10:07:09.154Z,73.10
2018-11-04T10:09:38.195Z,72.78
2018-11-04T10:12:07.142Z,72.29
2018-11-04T10:14:36.118Z,72.21
2018-11-04T10:17:05.718Z,72.73
2018-11-04T10:19:34.816Z,72.64
2018-11-04T10:22:03.587Z,72.38
2018-11-04T10:24:32.539Z,72.24
2018-11-04T10:27:01.538Z,71.66
2018-11-04T10:29:30.676Z,71.86
2018-11-04T10:31:59.637Z,71.67
2018-11-04T10:34:28.597Z,71.21
2018-11-04T10:36:57.565Z,71.11
2018-11-04T10:39:26.565Z,70.67
2018-11-04T10:41:55.483Z,70.63
2018-11-04T10:44:24.429Z,70.60
2018-11-04T10:46:53.404Z,70.48
2018-11-04T10:49:22.403Z,70.67
2018-11-04T10:51:51.369Z,70.29
2018-11-04T10:54:20.305Z,70.89
2018-11-04T10:56:49.852Z,70.95
2018-11-04T10:59:18.798Z,70.63
2018-11-04T11:01:47.717Z,71.21
2018-11-04T11:04:16.799Z,70.79
2018-11-04T11:06:45.854Z,70.13
2018-11-04T11:09:15.921Z,70.64
2018-11-04T11:11:45.146Z,70.31
2018-11-04T11:14:14.169Z,70.60
2018-11-04T11:16:43.225Z,70.18
2018-11-04T11:19:12.440Z,70.74
2018-11-04T11:21:42.013Z,70.78
2018-11-04T11:24:11.107Z,70.70
2018-11-04T11:26:41.349Z,71.40
2018-11-04T11:29:11.614Z,70.43
2018-11-04T11:31:41.466Z,69.96
2018-11-04T11:34:10.405Z,69.65
2018-11-04T11:36:40.733Z,70.42
2018-11-04T11:39:11.659Z,70.67
2018-11-04T11:41:41.166Z,71.04
2018-11-04T11:44:10.094Z,70.91
2018-11-04T11:46:39.443Z,70.81
2018-11-04T11:49:08.614Z,70.36
2018-11-04T11:51:37.692Z,70.49
2018-11-04T11:54:07.197Z,70.44
2018-11-04T11:56:36.129Z,69.83
2018-11-04T11:59:05.151Z,70.50
2018-11-04T12:01:34.355Z,70.18
2018-11-04T12:04:03.438Z,68.92
2018-11-04T12:06:32.400Z,69.30
2018-11-04T12:09:03.942Z,68.85
2018-11-04T12:11:33.710Z,68.72
2018-11-04T12:14:03.867Z,68.69
2018-11-04T12:16:32.842Z,67.93
2018-11-04T12:19:01.799Z,68.00
2018-11-04T12:21:30.938Z,67.50
2018-11-04T12:24:00.046Z,68.62
2018-11-04T12:26:28.966Z,67.99
2018-11-04T12:28:57.933Z,68.25
2018-11-04T12:31:27.157Z,68.88
2018-11-04T12:33:56.181Z,68.36
2018-11-04T12:36:27.008Z,68.22
2018-11-04T12:38:56.855Z,68.42
2018-11-04T12:41:26.039Z,68.40
2018-11-04T12:43:55.175Z,68.48
2018-11-04T12:46:25.152Z,68.36
2018-11-04T12:48:54.165Z,68.04
2018-11-04T12:51:23.233Z,68.64
2018-11-04T12:53:52.174Z,68.31
2018-11-04T12:56:21.195Z,68.21
2018-11-04T12:58:50.158Z,67.93
2018-11-04T13:01:19.458Z,68.63
2018-11-04T13:03:48.640Z,68.70
2018-11-04T13:06:17.617Z,69.08
2018-11-04T13:08:46.866Z,69.38
2018-11-04T13:11:15.921Z,69.47
2018-11-04T13:13:44.903Z,69.07
2018-11-04T13:16:13.951Z,68.79
2018-11-04T13:18:42.924Z,69.05
2018-11-04T13:21:11.995Z,68.57
2018-11-04T13:23:40.924Z,68.63
2018-11-04T13:26:10.034Z,68.85
2018-11-04T13:28:39.097Z,68.75
2018-11-04T13:31:08.133Z,68.55
2018-11-04T13:33:37.082Z,68.74
2018-11-04T13:36:06.109Z,68.71
2018-11-04T13:38:35.072Z,68.51
2018-11-04T13:41:04.117Z,68.33
2018-11-04T13:43:33.083Z,68.56
2018-11-04T13:46:02.026Z,68.36
2018-11-04T13:48:30.965Z,68.01
2018-11-04T13:50:59.893Z,67.77
2018-11-04T13:53:28.935Z,68.89
2018-11-04T13:55:57.874Z,68.61
2018-11-04T13:58:26.926Z,68.40
2018-11-04T14:00:55.879Z,68.60
2018-11-04T14:03:24.789Z,68.70
2018-11-04T14:05:53.742Z,68.34
2018-11-04T14:08:22.657Z,69.19
2018-11-04T14:10:51.588Z,69.35
2018-11-04T14:13:20.555Z,68.93
2018-11-04T14:15:49.510Z,68.66
2018-11-04T14:18:18.420Z,69.26
2018-11-04T14:20:47.373Z,69.17
2018-11-04T14:23:16.297Z,69.32
2018-11-04T14:25:45.246Z,68.96
2018-11-04T14:28:14.163Z,68.78
2018-11-04T14:30:43.097Z,68.42
2018-11-04T14:33:12.003Z,69.24
2018-11-04T14:35:40.968Z,68.56
2018-11-04T14:38:09.927Z,69.17
2018-11-04T14:40:38.923Z,69.21
2018-11-04T14:43:08.673Z,69.02
2018-11-04T14:45:37.666Z,68.54
2018-11-04T14:48:06.593Z,69.08
2018-11-04T14:50:35.561Z,68.88
2018-11-04T14:53:04.667Z,68.62
2018-11-04T14:55:33.502Z,69.00
2018-11-04T14:58:02.422Z,69.10
2018-11-04T15:00:35.529Z,68.83
2018-11-04T15:03:05.185Z,68.68
2018-11-04T15:05:34.150Z,67.95
2018-11-04T15:08:03.042Z,68.68
2018-11-04T15:10:31.975Z,68.67
2018-11-04T15:13:00.913Z,68.59
2018-11-04T15:15:29.847Z,68.73
2018-11-04T15:17:58.825Z,68.92
2018-11-04T15:20:27.746Z,68.52
2018-11-04T15:22:56.685Z,69.01
2018-11-04T15:25:25.602Z,68.41
2018-11-04T15:27:54.558Z,68.32
2018-11-04T15:30:23.473Z,68.55
2018-11-04T15:32:52.444Z,68.47
2018-11-04T15:35:21.404Z,68.45
2018-11-04T15:37:50.406Z,68.49
2018-11-04T15:40:19.390Z,68.17
2018-11-04T15:42:48.326Z,68.56
2018-11-04T15:45:17.617Z,68.83
2018-11-04T15:47:46.595Z,68.76
2018-11-04T15:50:16.893Z,68.69
2018-11-04T15:52:45.945Z,68.97
2018-11-04T15:55:14.861Z,68.56
2018-11-04T15:57:43.830Z,68.65
2018-11-04T16:00:14.098Z,68.80
2018-11-04T16:02:43.078Z,69.19
2018-11-04T16:05:12.216Z,68.86
2018-11-04T16:07:41.125Z,68.51
2018-11-04T16:10:10.673Z,68.58
2018-11-04T16:12:40.011Z,68.65
2018-11-04T16:15:11.243Z,68.67
2018-11-04T16:17:40.185Z,68.92
2018-11-04T16:20:10.657Z,68.56
2018-11-04T16:22:40.282Z,68.54
2018-11-04T16:25:09.660Z,68.76
2018-11-04T16:27:38.670Z,68.36
2018-11-04T16:30:09.845Z,68.64
2018-11-04T16:32:39.142Z,68.48
2018-11-04T16:35:09.527Z,68.40
2018-11-04T16:37:38.853Z,68.49
2018-11-04T16:40:08.306Z,68.68
2018-11-04T16:42:37.366Z,68.76
2018-11-04T16:45:08.393Z,68.48
2018-11-04T16:47:37.778Z,68.49
2018-11-04T16:50:07.282Z,68.51
2018-11-04T16:52:36.149Z,68.17
2018-11-04T16:55:05.917Z,68.14
2018-11-04T16:57:34.894Z,68.32
2018-11-04T17:00:03.918Z,68.23
2018-11-04T17:02:32.945Z,67.90
2018-11-04T17:05:01.990Z,67.57
2018-11-04T17:07:30.842Z,67.28
2018-11-04T17:09:59.788Z,67.66
2018-11-04T17:12:28.706Z,67.19
2018-11-04T17:14:57.633Z,67.41
2018-11-04T17:17:26.541Z,66.94
2018-11-04T17:19:55.493Z,67.00
2018-11-04T17:22:24.437Z,67.43
2018-11-04T17:24:53.562Z,67.29
2018-11-04T17:27:22.469Z,67.22
2018-11-04T17:29:51.414Z,66.99
2018-11-04T17:32:20.332Z,67.04
2018-11-04T17:34:49.310Z,67.36
2018-11-04T17:37:18.543Z,66.65
2018-11-04T17:39:47.498Z,66.78
2018-11-04T17:42:16.444Z,67.44
2018-11-04T17:44:45.648Z,67.22
2018-11-04T17:47:14.548Z,67.66
2018-11-04T17:49:43.499Z,68.10
2018-11-04T17:52:12.454Z,67.53
2018-11-04T17:54:41.568Z,67.95
2018-11-04T17:57:10.505Z,67.60
2018-11-04T17:59:39.465Z,67.76
2018-11-04T18:02:08.388Z,67.62
2018-11-04T18:04:37.347Z,67.69
2018-11-04T18:07:06.294Z,67.12
2018-11-04T18:09:35.281Z,67.29
2018-11-04T18:12:04.397Z,67.45
2018-11-04T18:14:33.694Z,66.96
2018-11-04T18:17:02.625Z,67.41
2018-11-04T18:19:31.602Z,68.05
2018-11-04T18:22:00.544Z,67.59
2018-11-04T18:24:29.497Z,67.83
2018-11-04T18:26:58.475Z,67.84
2018-11-04T18:29:27.432Z,67.69
2018-11-04T18:31:56.385Z,67.64
2018-11-04T18:34:25.349Z,67.80
2018-11-04T18:36:54.289Z,67.76
2018-11-04T18:39:23.244Z,67.51
2018-11-04T18:41:52.198Z,67.51
2018-11-04T18:44:21.229Z,67.81
2018-11-04T18:46:50.174Z,67.36
2018-11-04T18:49:19.117Z,67.19
2018-11-04T18:51:48.080Z,67.36
2018-11-04T18:54:17.039Z,67.32
2018-11-04T18:56:45.971Z,67.16
2018-11-04T18:59:14.990Z,67.18
2018-11-04T19:01:43.834Z,67.50
2018-11-04T19:04:12.778Z,67.07
2018-11-04T19:06:41.746Z,66.57
2018-11-04T19:09:11.174Z,66.50
2018-11-04T19:11:40.149Z,66.03
2018-11-04T19:14:09.105Z,66.20
2018-11-04T19:16:38.070Z,66.40
2018-11-04T19:19:07.030Z,66.48
2018-11-04T19:21:35.958Z,66.56
2018-11-04T19:24:05.270Z,66.20
2018-11-04T19:26:34.223Z,66.09
2018-11-04T19:29:03.171Z,65.95
2018-11-04T19:31:32.109Z,65.86
2018-11-04T19:34:01.041Z,66.14
2018-11-04T19:36:29.973Z,66.11
2018-11-04T19:38:58.942Z,65.65
2018-11-04T19:41:27.886Z,65.79
2018-11-04T19:44:17.757Z,65.67
2018-11-04T19:46:47.469Z,65.54
2018-11-04T19:49:16.386Z,65.37
2018-11-04T19:51:45.403Z,65.45
2018-11-04T19:54:15.806Z,65.97
2018-11-04T19:56:44.809Z,65.92
2018-11-04T19:59:14.245Z,65.67
2018-11-04T20:01:43.206Z,65.70
2018-11-04T20:04:19.775Z,66.10
2018-11-04T20:06:52.341Z,65.80
2018-11-04T20:09:21.382Z,65.77
2018-11-04T20:11:50.344Z,65.56
2018-11-04T20:14:21.482Z,66.14
2018-11-04T20:16:52.377Z,65.49
2018-11-04T20:19:26.997Z,66.18
2018-11-04T20:21:56.505Z,66.35
2018-11-04T20:24:30.790Z,66.96
2018-11-04T20:27:00.120Z,66.75
2018-11-04T20:29:29.133Z,67.31
2018-11-04T20:32:03.518Z,67.29
2018-11-04T20:34:32.438Z,66.92
2018-11-04T20:37:01.380Z,67.35
2018-11-04T20:39:35.624Z,66.75
2018-11-04T20:42:04.551Z,66.87
2018-11-04T20:44:37.639Z,66.32
2018-11-04T20:47:06.565Z,66.94
2018-11-04T20:50:42.677Z,67.32
2018-11-04T20:53:11.641Z,66.93
2018-11-04T20:55:45.960Z,67.23
2018-11-04T20:58:15.047Z,67.55
2018-11-04T21:00:43.848Z,67.73
2018-11-04T21:03:12.790Z,67.50
2018-11-04T21:05:41.781Z,67.92
2018-11-04T21:08:10.730Z,67.26
2018-11-04T21:10:39.639Z,67.09
2018-11-04T21:13:08.582Z,67.11
2018-11-04T21:15:37.517Z,67.09
2018-11-04T21:18:06.458Z,66.97
2018-11-04T21:20:35.374Z,66.81
2018-11-04T21:23:04.305Z,66.63
2018-11-04T21:25:33.714Z,66.71
2018-11-04T21:28:02.892Z,66.26
2018-11-04T21:30:32.265Z,66.66
2018-11-04T21:33:02.409Z,67.04
2018-11-04T21:35:31.345Z,67.01
2018-11-04T21:38:00.348Z,66.76
2018-11-04T21:40:29.618Z,67.11
2018-11-04T21:42:58.581Z,67.12
2018-11-04T21:45:27.491Z,66.79
2018-11-04T21:47:56.443Z,66.84
2018-11-04T21:50:25.555Z,66.76
2018-11-04T21:52:54.517Z,66.91
2018-11-04T21:55:24.158Z,66.47
2018-11-04T21:57:52.956Z,66.99
2018-11-04T22:00:22.200Z,66.69
2018-11-04T22:02:51.287Z,66.94
2018-11-04T22:05:20.080Z,66.70
2018-11-04T22:07:49.004Z,67.15
2018-11-04T22:10:17.963Z,66.95
2018-11-04T22:12:46.897Z,67.11
2018-11-04T22:15:15.862Z,67.50
2018-11-04T22:17:44.804Z,67.51
2018-11-04T22:20:13.753Z,67.53
2018-11-04T22:22:42.666Z,67.61
2018-11-04T22:25:12.109Z,67.48
2018-11-04T22:27:41.070Z,67.55
2018-11-04T22:30:11.431Z,67.15
2018-11-04T22:32:40.425Z,67.57
2018-11-04T22:35:10.691Z,67.67
2018-11-04T22:37:39.669Z,67.72
2018-11-04T22:40:09.948Z,67.50
2018-11-04T22:42:39.026Z,67.57
2018-11-04T22:45:09.053Z,67.49
2018-11-04T22:47:38.030Z,67.85
2018-11-04T22:50:11.246Z,67.61
2018-11-04T22:52:40.726Z,67.89
2018-11-04T22:55:09.938Z,67.73
2018-11-04T22:57:38.865Z,67.41
2018-11-04T23:00:13.888Z,67.51
2018-11-04T23:02:42.796Z,67.33
2018-11-04T23:05:17.022Z,67.62
2018-11-04T23:07:46.109Z,67.60
2018-11-04T23:10:15.270Z,68.12
2018-11-04T23:12:44.234Z,67.70
2018-11-04T23:15:13.227Z,67.64
2018-11-04T23:17:42.301Z,67.67
2018-11-04T23:20:11.209Z,67.65
2018-11-04T23:22:40.138Z,67.75
2018-11-04T23:25:11.048Z,67.98
2018-11-04T23:27:40.686Z,67.45
2018-11-04T23:30:11.738Z,67.58
2018-11-04T23:32:41.002Z,68.12
2018-11-04T23:35:10.887Z,68.03
2018-11-04T23:37:39.949Z,67.58
2018-11-04T23:40:09.496Z,67.80
2018-11-04T23:42:38.440Z,67.41
2018-11-04T23:45:08.640Z,68.08
2018-11-04T23:47:37.744Z,68.36
2018-11-04T23:50:08.675Z,67.90
2018-11-04T23:52:37.665Z,68.42
2018-11-04T23:55:07.135Z,68.29
2018-11-04T23:57:36.084Z,68.19
